sensor_id;sensor_type;location;lat;lon;timestamp;pressure;altitude;pressure_sealevel;temperature;humidity
2681;BME280;1350;42.134;24.708;2024-02-15T00:00:32;99770.25;;;8.75;77.78
2681;BME280;1350;42.134;24.708;2024-02-15T00:03:12;99771.03;;;8.77;77.43
2681;BME280;1350;42.134;24.708;2024-02-15T00:05:57;99777.25;;;8.76;78.13
2681;BME280;1350;42.134;24.708;2024-02-15T00:08:51;99781.78;;;8.72;77.61
2681;BME280;1350;42.134;24.708;2024-02-15T00:11:38;99782.78;;;8.70;77.76
2681;BME280;1350;42.134;24.708;2024-02-15T00:14:16;99779.06;;;8.74;77.31
2681;BME280;1350;42.134;24.708;2024-02-15T00:16:51;99776.69;;;8.68;76.19
2681;BME280;1350;42.134;24.708;2024-02-15T00:19:17;99772.97;;;8.73;76.26
2681;BME280;1350;42.134;24.708;2024-02-15T00:21:46;99774.19;;;8.65;76.67
2681;BME280;1350;42.134;24.708;2024-02-15T00:24:13;99781.06;;;8.69;76.13
2681;BME280;1350;42.134;24.708;2024-02-15T00:26:40;99774.97;;;8.67;76.65
2681;BME280;1350;42.134;24.708;2024-02-15T00:29:08;99772.53;;;8.62;77.45
2681;BME280;1350;42.134;24.708;2024-02-15T00:31:35;99781.38;;;8.61;77.13
2681;BME280;1350;42.134;24.708;2024-02-15T00:34:03;99769.03;;;8.62;77.09
2681;BME280;1350;42.134;24.708;2024-02-15T00:36:31;99772.72;;;8.57;76.93
2681;BME280;1350;42.134;24.708;2024-02-15T00:39:00;99770.78;;;8.61;77.19
2681;BME280;1350;42.134;24.708;2024-02-15T00:41:29;99770.09;;;8.57;77.25
2681;BME280;1350;42.134;24.708;2024-02-15T00:43:59;99772.59;;;8.61;77.63
2681;BME280;1350;42.134;24.708;2024-02-15T00:46:26;99766.44;;;8.60;77.12
2681;BME280;1350;42.134;24.708;2024-02-15T00:48:54;99771.66;;;8.62;77.85
2681;BME280;1350;42.134;24.708;2024-02-15T00:51:22;99764.88;;;8.56;77.51
2681;BME280;1350;42.134;24.708;2024-02-15T00:53:49;99772.66;;;8.59;77.21
2681;BME280;1350;42.134;24.708;2024-02-15T00:56:17;99768.41;;;8.55;77.72
2681;BME280;1350;42.134;24.708;2024-02-15T00:58:44;99769.66;;;8.46;78.18
2681;BME280;1350;42.134;24.708;2024-02-15T01:01:11;99769.41;;;8.52;78.57
2681;BME280;1350;42.134;24.708;2024-02-15T01:03:38;99768.34;;;8.56;77.86
2681;BME280;1350;42.134;24.708;2024-02-15T01:06:05;99775.19;;;8.62;78.83
2681;BME280;1350;42.134;24.708;2024-02-15T01:08:49;99773.69;;;8.55;78.46
2681;BME280;1350;42.134;24.708;2024-02-15T01:11:38;99768.41;;;8.55;77.65
2681;BME280;1350;42.134;24.708;2024-02-15T01:14:10;99769.59;;;8.48;78.67
2681;BME280;1350;42.134;24.708;2024-02-15T01:16:48;99758.97;;;8.49;78.62
2681;BME280;1350;42.134;24.708;2024-02-15T01:19:14;99768.00;;;8.44;79.18
2681;BME280;1350;42.134;24.708;2024-02-15T01:21:41;99767.16;;;8.43;78.95
2681;BME280;1350;42.134;24.708;2024-02-15T01:24:09;99760.16;;;8.42;79.54
2681;BME280;1350;42.134;24.708;2024-02-15T01:26:37;99758.09;;;8.49;79.98
2681;BME280;1350;42.134;24.708;2024-02-15T01:29:04;99760.25;;;8.39;80.51
2681;BME280;1350;42.134;24.708;2024-02-15T01:31:31;99761.00;;;8.43;79.74
2681;BME280;1350;42.134;24.708;2024-02-15T01:33:58;99770.88;;;8.38;79.17
2681;BME280;1350;42.134;24.708;2024-02-15T01:36:25;99775.44;;;8.34;79.06
2681;BME280;1350;42.134;24.708;2024-02-15T01:38:52;99777.16;;;8.35;78.32
2681;BME280;1350;42.134;24.708;2024-02-15T01:41:19;99773.50;;;8.38;79.57
2681;BME280;1350;42.134;24.708;2024-02-15T01:43:47;99776.72;;;8.24;79.96
2681;BME280;1350;42.134;24.708;2024-02-15T01:46:15;99771.38;;;8.26;80.47
2681;BME280;1350;42.134;24.708;2024-02-15T01:48:43;99773.19;;;8.25;81.19
2681;BME280;1350;42.134;24.708;2024-02-15T01:51:11;99782.81;;;8.26;81.71
2681;BME280;1350;42.134;24.708;2024-02-15T01:53:40;99786.88;;;8.12;81.30
2681;BME280;1350;42.134;24.708;2024-02-15T01:56:09;99779.75;;;8.14;81.85
2681;BME280;1350;42.134;24.708;2024-02-15T01:58:39;99782.63;;;8.08;80.21
2681;BME280;1350;42.134;24.708;2024-02-15T02:01:09;99790.38;;;8.12;79.85
2681;BME280;1350;42.134;24.708;2024-02-15T02:03:36;99790.38;;;8.12;80.31
2681;BME280;1350;42.134;24.708;2024-02-15T02:06:03;99791.50;;;8.07;80.07
2681;BME280;1350;42.134;24.708;2024-02-15T02:08:33;99785.56;;;8.00;79.85
2681;BME280;1350;42.134;24.708;2024-02-15T02:11:12;99790.69;;;8.05;79.42
2681;BME280;1350;42.134;24.708;2024-02-15T02:14:14;99785.50;;;8.02;79.91
2681;BME280;1350;42.134;24.708;2024-02-15T02:16:57;99782.81;;;8.03;80.20
2681;BME280;1350;42.134;24.708;2024-02-15T02:19:48;99784.94;;;7.94;79.85
2681;BME280;1350;42.134;24.708;2024-02-15T02:22:34;99780.94;;;7.84;79.11
2681;BME280;1350;42.134;24.708;2024-02-15T02:25:17;99798.03;;;7.74;79.78
2681;BME280;1350;42.134;24.708;2024-02-15T02:27:59;99790.94;;;7.76;79.58
2681;BME280;1350;42.134;24.708;2024-02-15T02:30:40;99795.09;;;7.81;79.88
2681;BME280;1350;42.134;24.708;2024-02-15T02:33:22;99797.03;;;7.78;80.73
2681;BME280;1350;42.134;24.708;2024-02-15T02:35:57;99797.63;;;7.61;81.27
2681;BME280;1350;42.134;24.708;2024-02-15T02:38:26;99798.66;;;7.57;81.38
2681;BME280;1350;42.134;24.708;2024-02-15T02:41:11;99804.47;;;7.67;81.11
2681;BME280;1350;42.134;24.708;2024-02-15T02:43:50;99807.69;;;7.52;81.99
2681;BME280;1350;42.134;24.708;2024-02-15T02:46:19;99806.81;;;7.51;81.69
2681;BME280;1350;42.134;24.708;2024-02-15T02:48:50;99810.25;;;7.53;81.07
2681;BME280;1350;42.134;24.708;2024-02-15T02:51:18;99817.84;;;7.62;80.80
2681;BME280;1350;42.134;24.708;2024-02-15T02:53:45;99808.19;;;7.61;81.15
2681;BME280;1350;42.134;24.708;2024-02-15T02:56:13;99803.19;;;7.54;81.96
2681;BME280;1350;42.134;24.708;2024-02-15T02:58:40;99812.19;;;7.48;82.08
2681;BME280;1350;42.134;24.708;2024-02-15T03:01:09;99812.19;;;7.48;82.46
2681;BME280;1350;42.134;24.708;2024-02-15T03:03:36;99806.63;;;7.56;82.62
2681;BME280;1350;42.134;24.708;2024-02-15T03:06:05;99812.97;;;7.52;82.71
2681;BME280;1350;42.134;24.708;2024-02-15T03:08:32;99805.03;;;7.52;82.83
2681;BME280;1350;42.134;24.708;2024-02-15T03:10:59;99806.00;;;7.49;83.07
2681;BME280;1350;42.134;24.708;2024-02-15T03:13:27;99804.28;;;7.48;83.21
2681;BME280;1350;42.134;24.708;2024-02-15T03:15:54;99807.16;;;7.42;84.20
2681;BME280;1350;42.134;24.708;2024-02-15T03:18:21;99806.09;;;7.46;83.92
2681;BME280;1350;42.134;24.708;2024-02-15T03:20:49;99808.09;;;7.40;83.90
2681;BME280;1350;42.134;24.708;2024-02-15T03:23:16;99798.25;;;7.45;82.66
2681;BME280;1350;42.134;24.708;2024-02-15T03:25:43;99800.06;;;7.43;83.10
2681;BME280;1350;42.134;24.708;2024-02-15T03:28:10;99804.22;;;7.50;82.68
2681;BME280;1350;42.134;24.708;2024-02-15T03:30:39;99807.88;;;7.46;81.88
2681;BME280;1350;42.134;24.708;2024-02-15T03:33:06;99806.91;;;7.48;82.90
2681;BME280;1350;42.134;24.708;2024-02-15T03:35:33;99806.91;;;7.48;82.91
2681;BME280;1350;42.134;24.708;2024-02-15T03:38:01;99804.94;;;7.55;81.84
2681;BME280;1350;42.134;24.708;2024-02-15T03:40:28;99810.22;;;7.55;80.87
2681;BME280;1350;42.134;24.708;2024-02-15T03:42:55;99798.59;;;7.59;81.30
2681;BME280;1350;42.134;24.708;2024-02-15T03:45:22;99810.75;;;7.63;80.70
2681;BME280;1350;42.134;24.708;2024-02-15T03:47:52;99809.16;;;7.59;81.57
2681;BME280;1350;42.134;24.708;2024-02-15T03:50:19;99805.31;;;7.67;80.95
2681;BME280;1350;42.134;24.708;2024-02-15T03:52:47;99814.31;;;7.62;81.44
2681;BME280;1350;42.134;24.708;2024-02-15T03:55:14;99812.38;;;7.67;81.73
2681;BME280;1350;42.134;24.708;2024-02-15T03:57:41;99819.50;;;7.65;81.32
2681;BME280;1350;42.134;24.708;2024-02-15T04:00:09;99821.78;;;7.74;81.48
2681;BME280;1350;42.134;24.708;2024-02-15T04:02:38;99833.28;;;7.73;80.25
2681;BME280;1350;42.134;24.708;2024-02-15T04:05:26;99830.75;;;7.70;80.57
2681;BME280;1350;42.134;24.708;2024-02-15T04:07:54;99823.69;;;7.70;81.37
2681;BME280;1350;42.134;24.708;2024-02-15T04:10:21;99823.78;;;7.67;80.81
2681;BME280;1350;42.134;24.708;2024-02-15T04:12:48;99827.22;;;7.69;80.58
2681;BME280;1350;42.134;24.708;2024-02-15T04:15:15;99822.94;;;7.67;79.88
2681;BME280;1350;42.134;24.708;2024-02-15T04:17:43;99824.78;;;7.65;80.87
2681;BME280;1350;42.134;24.708;2024-02-15T04:20:11;99821.97;;;7.69;80.33
2681;BME280;1350;42.134;24.708;2024-02-15T04:22:41;99833.50;;;7.67;79.58
2681;BME280;1350;42.134;24.708;2024-02-15T04:25:09;99826.47;;;7.66;79.72
2681;BME280;1350;42.134;24.708;2024-02-15T04:27:36;99829.75;;;7.72;79.37
2681;BME280;1350;42.134;24.708;2024-02-15T04:30:03;99835.16;;;7.69;79.87
2681;BME280;1350;42.134;24.708;2024-02-15T04:32:33;99830.84;;;7.67;79.37
2681;BME280;1350;42.134;24.708;2024-02-15T04:35:00;99827.28;;;7.68;79.18
2681;BME280;1350;42.134;24.708;2024-02-15T04:37:28;99832.56;;;7.68;80.24
2681;BME280;1350;42.134;24.708;2024-02-15T04:39:59;99824.59;;;7.69;79.90
2681;BME280;1350;42.134;24.708;2024-02-15T04:42:33;99830.81;;;7.68;81.31
2681;BME280;1350;42.134;24.708;2024-02-15T04:45:01;99836.78;;;7.73;81.05
2681;BME280;1350;42.134;24.708;2024-02-15T04:47:28;99832.06;;;7.81;81.22
2681;BME280;1350;42.134;24.708;2024-02-15T04:49:56;99831.28;;;7.79;79.95
2681;BME280;1350;42.134;24.708;2024-02-15T04:52:23;99834.81;;;7.78;79.81
2681;BME280;1350;42.134;24.708;2024-02-15T04:54:50;99833.16;;;7.76;78.65
2681;BME280;1350;42.134;24.708;2024-02-15T04:57:20;99835.75;;;7.77;78.55
2681;BME280;1350;42.134;24.708;2024-02-15T04:59:48;99830.13;;;7.86;78.91
2681;BME280;1350;42.134;24.708;2024-02-15T05:02:21;99834.69;;;7.81;79.06
2681;BME280;1350;42.134;24.708;2024-02-15T05:05:02;99832.97;;;7.80;79.06
2681;BME280;1350;42.134;24.708;2024-02-15T05:07:30;99840.25;;;7.74;80.15
2681;BME280;1350;42.134;24.708;2024-02-15T05:09:57;99846.19;;;7.80;79.31
2681;BME280;1350;42.134;24.708;2024-02-15T05:12:25;99846.75;;;7.88;79.08
2681;BME280;1350;42.134;24.708;2024-02-15T05:14:53;99847.06;;;7.81;79.25
2681;BME280;1350;42.134;24.708;2024-02-15T05:17:38;99846.00;;;7.85;79.57
2681;BME280;1350;42.134;24.708;2024-02-15T05:20:08;99850.34;;;7.86;79.77
2681;BME280;1350;42.134;24.708;2024-02-15T05:22:39;99854.84;;;7.84;79.13
2681;BME280;1350;42.134;24.708;2024-02-15T05:25:09;99848.69;;;7.83;78.33
2681;BME280;1350;42.134;24.708;2024-02-15T05:27:39;99852.09;;;7.87;79.04
2681;BME280;1350;42.134;24.708;2024-02-15T05:30:08;99854.28;;;7.76;78.85
2681;BME280;1350;42.134;24.708;2024-02-15T05:32:37;99858.69;;;7.75;79.35
2681;BME280;1350;42.134;24.708;2024-02-15T05:35:08;99852.38;;;7.79;78.70
2681;BME280;1350;42.134;24.708;2024-02-15T05:37:35;99860.13;;;7.84;78.20
2681;BME280;1350;42.134;24.708;2024-02-15T05:40:02;99868.72;;;7.89;77.92
2681;BME280;1350;42.134;24.708;2024-02-15T05:42:30;99865.00;;;7.94;78.50
2681;BME280;1350;42.134;24.708;2024-02-15T05:45:27;99874.53;;;7.98;78.25
2681;BME280;1350;42.134;24.708;2024-02-15T05:47:55;99880.97;;;7.91;78.72
2681;BME280;1350;42.134;24.708;2024-02-15T05:50:22;99878.50;;;7.87;77.70
2681;BME280;1350;42.134;24.708;2024-02-15T05:52:49;99877.50;;;7.89;78.42
2681;BME280;1350;42.134;24.708;2024-02-15T05:55:18;99887.03;;;7.93;77.31
2681;BME280;1350;42.134;24.708;2024-02-15T05:57:45;99885.03;;;8.00;77.47
2681;BME280;1350;42.134;24.708;2024-02-15T06:00:15;99881.38;;;8.04;77.30
2681;BME280;1350;42.134;24.708;2024-02-15T06:02:44;99886.66;;;8.04;77.03
2681;BME280;1350;42.134;24.708;2024-02-15T06:05:11;99890.78;;;8.11;76.97
2681;BME280;1350;42.134;24.708;2024-02-15T06:07:38;99888.25;;;8.08;78.31
2681;BME280;1350;42.134;24.708;2024-02-15T06:10:06;99892.66;;;8.07;78.11
2681;BME280;1350;42.134;24.708;2024-02-15T06:12:33;99898.00;;;8.06;78.09
2681;BME280;1350;42.134;24.708;2024-02-15T06:15:00;99896.06;;;8.11;77.66
2681;BME280;1350;42.134;24.708;2024-02-15T06:17:32;99903.63;;;8.20;78.00
2681;BME280;1350;42.134;24.708;2024-02-15T06:19:59;99904.03;;;8.09;77.08
2681;BME280;1350;42.134;24.708;2024-02-15T06:22:25;99908.16;;;8.16;77.26
2681;BME280;1350;42.134;24.708;2024-02-15T06:24:53;99913.31;;;8.21;76.56
2681;BME280;1350;42.134;24.708;2024-02-15T06:27:20;99906.06;;;8.26;76.96
2681;BME280;1350;42.134;24.708;2024-02-15T06:29:49;99900.78;;;8.26;76.69
2681;BME280;1350;42.134;24.708;2024-02-15T06:32:35;99910.28;;;8.31;76.81
2681;BME280;1350;42.134;24.708;2024-02-15T06:35:19;99901.56;;;8.29;77.40
2681;BME280;1350;42.134;24.708;2024-02-15T06:38:04;99913.75;;;8.32;76.10
2681;BME280;1350;42.134;24.708;2024-02-15T06:40:50;99912.50;;;8.42;75.47
2681;BME280;1350;42.134;24.708;2024-02-15T06:43:19;99923.13;;;8.40;76.32
2681;BME280;1350;42.134;24.708;2024-02-15T06:45:46;99915.16;;;8.42;75.10
2681;BME280;1350;42.134;24.708;2024-02-15T06:48:18;99919.56;;;8.41;75.65
2681;BME280;1350;42.134;24.708;2024-02-15T06:50:47;99926.41;;;8.47;75.48
2681;BME280;1350;42.134;24.708;2024-02-15T06:53:16;99935.19;;;8.47;75.85
2681;BME280;1350;42.134;24.708;2024-02-15T06:55:45;99926.34;;;8.48;74.64
2681;BME280;1350;42.134;24.708;2024-02-15T06:58:14;99932.31;;;8.53;75.05
2681;BME280;1350;42.134;24.708;2024-02-15T07:00:42;99931.28;;;8.57;75.10
2681;BME280;1350;42.134;24.708;2024-02-15T07:03:09;99932.69;;;8.66;75.19
2681;BME280;1350;42.134;24.708;2024-02-15T07:05:37;99935.03;;;8.74;74.80
2681;BME280;1350;42.134;24.708;2024-02-15T07:08:07;99932.16;;;8.80;74.49
2681;BME280;1350;42.134;24.708;2024-02-15T07:10:37;99934.91;;;8.77;73.86
2681;BME280;1350;42.134;24.708;2024-02-15T07:13:04;99929.94;;;8.91;73.71
2681;BME280;1350;42.134;24.708;2024-02-15T07:15:31;99933.41;;;8.93;72.44
2681;BME280;1350;42.134;24.708;2024-02-15T07:17:58;99938.75;;;8.91;72.92
2681;BME280;1350;42.134;24.708;2024-02-15T07:20:26;99945.44;;;9.00;71.76
2681;BME280;1350;42.134;24.708;2024-02-15T07:22:55;99938.88;;;9.10;72.07
2681;BME280;1350;42.134;24.708;2024-02-15T07:25:22;99937.13;;;9.09;69.56
2681;BME280;1350;42.134;24.708;2024-02-15T07:27:48;99941.53;;;9.10;70.63
2681;BME280;1350;42.134;24.708;2024-02-15T07:30:16;99941.47;;;9.11;70.59
2681;BME280;1350;42.134;24.708;2024-02-15T07:32:43;99940.06;;;9.23;70.54
2681;BME280;1350;42.134;24.708;2024-02-15T07:35:09;99950.78;;;9.20;70.03
2681;BME280;1350;42.134;24.708;2024-02-15T07:37:36;99933.00;;;9.23;69.71
2681;BME280;1350;42.134;24.708;2024-02-15T07:40:07;99935.34;;;9.31;69.29
2681;BME280;1350;42.134;24.708;2024-02-15T07:42:34;99941.06;;;9.42;68.51
2681;BME280;1350;42.134;24.708;2024-02-15T07:45:01;99933.47;;;9.54;68.36
2681;BME280;1350;42.134;24.708;2024-02-15T07:47:32;99937.81;;;9.55;68.37
2681;BME280;1350;42.134;24.708;2024-02-15T07:49:59;99938.84;;;9.73;67.65
2681;BME280;1350;42.134;24.708;2024-02-15T07:52:26;99943.25;;;9.72;66.48
2681;BME280;1350;42.134;24.708;2024-02-15T07:54:54;99953.13;;;10.09;65.38
2681;BME280;1350;42.134;24.708;2024-02-15T07:57:23;99950.59;;;10.26;63.00
2681;BME280;1350;42.134;24.708;2024-02-15T07:59:51;99943.84;;;10.76;61.86
2681;BME280;1350;42.134;24.708;2024-02-15T08:02:17;99943.63;;;11.69;59.15
2681;BME280;1350;42.134;24.708;2024-02-15T08:04:47;99945.38;;;12.52;57.14
2681;BME280;1350;42.134;24.708;2024-02-15T08:07:14;99936.00;;;13.54;53.86
2681;BME280;1350;42.134;24.708;2024-02-15T08:09:41;99941.34;;;13.84;52.44
2681;BME280;1350;42.134;24.708;2024-02-15T08:12:09;99936.25;;;13.65;51.67
2681;BME280;1350;42.134;24.708;2024-02-15T08:14:37;99942.50;;;14.37;50.32
2681;BME280;1350;42.134;24.708;2024-02-15T08:17:05;99937.97;;;14.24;49.38
2681;BME280;1350;42.134;24.708;2024-02-15T08:19:33;99937.06;;;14.39;48.59
2681;BME280;1350;42.134;24.708;2024-02-15T08:22:04;99941.22;;;15.11;48.55
2681;BME280;1350;42.134;24.708;2024-02-15T08:24:31;99942.75;;;15.15;47.06
2681;BME280;1350;42.134;24.708;2024-02-15T08:26:58;99949.13;;;14.72;46.67
2681;BME280;1350;42.134;24.708;2024-02-15T08:29:25;99941.41;;;14.82;46.73
2681;BME280;1350;42.134;24.708;2024-02-15T08:31:54;99931.91;;;15.45;46.23
2681;BME280;1350;42.134;24.708;2024-02-15T08:34:20;99934.44;;;15.73;45.32
2681;BME280;1350;42.134;24.708;2024-02-15T08:36:47;99934.56;;;15.84;44.70
2681;BME280;1350;42.134;24.708;2024-02-15T08:39:14;99936.94;;;15.50;44.95
2681;BME280;1350;42.134;24.708;2024-02-15T08:41:42;99939.03;;;15.71;45.25
2681;BME280;1350;42.134;24.708;2024-02-15T08:44:09;99941.78;;;15.16;45.39
2681;BME280;1350;42.134;24.708;2024-02-15T08:46:40;99934.06;;;15.53;44.55
2681;BME280;1350;42.134;24.708;2024-02-15T08:49:09;99929.34;;;15.95;45.19
2681;BME280;1350;42.134;24.708;2024-02-15T08:51:37;99936.66;;;16.31;43.53
2681;BME280;1350;42.134;24.708;2024-02-15T08:54:05;99936.00;;;16.40;43.91
2681;BME280;1350;42.134;24.708;2024-02-15T08:56:33;99924.84;;;15.96;43.63
2681;BME280;1350;42.134;24.708;2024-02-15T08:59:01;99937.16;;;15.59;44.44
2681;BME280;1350;42.134;24.708;2024-02-15T09:01:28;99926.38;;;16.50;43.45
2681;BME280;1350;42.134;24.708;2024-02-15T09:03:56;99932.69;;;16.61;43.27
2681;BME280;1350;42.134;24.708;2024-02-15T09:06:24;99930.66;;;16.65;43.09
2681;BME280;1350;42.134;24.708;2024-02-15T09:08:51;99932.44;;;16.90;42.83
2681;BME280;1350;42.134;24.708;2024-02-15T09:11:18;99924.19;;;16.80;42.38
2681;BME280;1350;42.134;24.708;2024-02-15T09:13:47;99940.81;;;16.72;42.62
2681;BME280;1350;42.134;24.708;2024-02-15T09:16:16;99933.25;;;16.54;42.69
2681;BME280;1350;42.134;24.708;2024-02-15T09:18:43;99928.28;;;16.35;42.45
2681;BME280;1350;42.134;24.708;2024-02-15T09:21:10;99935.03;;;16.41;43.25
2681;BME280;1350;42.134;24.708;2024-02-15T09:23:39;99924.09;;;16.81;42.42
2681;BME280;1350;42.134;24.708;2024-02-15T09:26:06;99914.69;;;16.26;42.70
2681;BME280;1350;42.134;24.708;2024-02-15T09:28:35;99913.28;;;16.70;42.36
2681;BME280;1350;42.134;24.708;2024-02-15T09:31:02;99924.84;;;16.33;42.61
2681;BME280;1350;42.134;24.708;2024-02-15T09:33:29;99916.41;;;16.52;42.44
2681;BME280;1350;42.134;24.708;2024-02-15T09:35:56;99913.63;;;16.66;42.22
2681;BME280;1350;42.134;24.708;2024-02-15T09:38:23;99916.97;;;16.44;41.90
2681;BME280;1350;42.134;24.708;2024-02-15T09:40:52;99906.38;;;16.79;41.99
2681;BME280;1350;42.134;24.708;2024-02-15T09:43:20;99904.69;;;16.78;41.91
2681;BME280;1350;42.134;24.708;2024-02-15T09:45:47;99899.72;;;16.97;41.75
2681;BME280;1350;42.134;24.708;2024-02-15T09:48:15;99892.84;;;16.93;41.62
2681;BME280;1350;42.134;24.708;2024-02-15T09:50:45;99892.13;;;17.15;41.18
2681;BME280;1350;42.134;24.708;2024-02-15T09:53:12;99889.31;;;17.05;41.72
2681;BME280;1350;42.134;24.708;2024-02-15T09:55:40;99874.59;;;17.34;41.84
2681;BME280;1350;42.134;24.708;2024-02-15T09:58:11;99876.00;;;17.96;40.47
2681;BME280;1350;42.134;24.708;2024-02-15T10:00:38;99873.25;;;18.31;40.23
2681;BME280;1350;42.134;24.708;2024-02-15T10:03:06;99875.44;;;17.58;40.58
2681;BME280;1350;42.134;24.708;2024-02-15T10:05:33;99861.19;;;17.34;41.28
2681;BME280;1350;42.134;24.708;2024-02-15T10:08:00;99866.06;;;17.40;41.00
2681;BME280;1350;42.134;24.708;2024-02-15T10:10:28;99863.34;;;17.53;40.57
2681;BME280;1350;42.134;24.708;2024-02-15T10:12:55;99857.63;;;17.34;41.12
2681;BME280;1350;42.134;24.708;2024-02-15T10:15:31;99855.50;;;17.50;40.94
2681;BME280;1350;42.134;24.708;2024-02-15T10:18:00;99842.00;;;17.28;41.28
2681;BME280;1350;42.134;24.708;2024-02-15T10:20:27;99849.13;;;17.40;40.78
2681;BME280;1350;42.134;24.708;2024-02-15T10:23:09;99842.47;;;17.22;40.63
2681;BME280;1350;42.134;24.708;2024-02-15T10:25:36;99839.38;;;17.39;40.59
2681;BME280;1350;42.134;24.708;2024-02-15T10:28:04;99841.00;;;17.98;40.12
2681;BME280;1350;42.134;24.708;2024-02-15T10:30:34;99838.97;;;18.45;39.44
2681;BME280;1350;42.134;24.708;2024-02-15T10:33:01;99834.47;;;18.46;39.70
2681;BME280;1350;42.134;24.708;2024-02-15T10:35:28;99828.69;;;17.84;39.81
2681;BME280;1350;42.134;24.708;2024-02-15T10:38:05;99829.25;;;17.66;40.11
2681;BME280;1350;42.134;24.708;2024-02-15T10:40:33;99828.00;;;18.37;39.90
2681;BME280;1350;42.134;24.708;2024-02-15T10:43:02;99826.50;;;18.33;39.65
2681;BME280;1350;42.134;24.708;2024-02-15T10:45:30;99822.34;;;18.63;39.13
2681;BME280;1350;42.134;24.708;2024-02-15T10:47:59;99818.69;;;18.19;38.94
2681;BME280;1350;42.134;24.708;2024-02-15T10:50:25;99817.59;;;17.89;39.29
2681;BME280;1350;42.134;24.708;2024-02-15T10:52:55;99820.44;;;18.42;38.91
2681;BME280;1350;42.134;24.708;2024-02-15T10:55:33;99808.22;;;18.27;38.87
2681;BME280;1350;42.134;24.708;2024-02-15T10:58:05;99802.09;;;18.36;39.12
2681;BME280;1350;42.134;24.708;2024-02-15T11:00:33;99799.84;;;18.75;38.90
2681;BME280;1350;42.134;24.708;2024-02-15T11:03:05;99798.19;;;18.52;38.50
2681;BME280;1350;42.134;24.708;2024-02-15T11:05:34;99799.19;;;18.39;39.24
2681;BME280;1350;42.134;24.708;2024-02-15T11:08:05;99798.81;;;18.55;38.59
2681;BME280;1350;42.134;24.708;2024-02-15T11:10:33;99791.09;;;18.73;38.75
2681;BME280;1350;42.134;24.708;2024-02-15T11:13:01;99788.81;;;18.46;38.13
2681;BME280;1350;42.134;24.708;2024-02-15T11:15:42;99785.63;;;18.52;38.62
2681;BME280;1350;42.134;24.708;2024-02-15T11:18:45;99783.69;;;18.43;38.16
2681;BME280;1350;42.134;24.708;2024-02-15T11:21:15;99779.50;;;18.61;38.80
2681;BME280;1350;42.134;24.708;2024-02-15T11:23:42;99774.66;;;18.87;38.44
2681;BME280;1350;42.134;24.708;2024-02-15T11:26:42;99768.56;;;19.16;38.42
2681;BME280;1350;42.134;24.708;2024-02-15T11:29:04;99760.91;;;19.53;38.07
2681;BME280;1350;42.134;24.708;2024-02-15T11:31:53;99761.44;;;19.67;37.52
2681;BME280;1350;42.134;24.708;2024-02-15T11:34:43;99758.88;;;19.45;37.50
2681;BME280;1350;42.134;24.708;2024-02-15T11:40:13;99751.34;;;19.39;36.79
2681;BME280;1350;42.134;24.708;2024-02-15T11:42:40;99751.25;;;19.09;37.55
2681;BME280;1350;42.134;24.708;2024-02-15T11:45:10;99751.59;;;19.16;36.96
2681;BME280;1350;42.134;24.708;2024-02-15T11:47:38;99758.06;;;19.13;37.52
2681;BME280;1350;42.134;24.708;2024-02-15T11:50:09;99753.63;;;19.23;37.06
2681;BME280;1350;42.134;24.708;2024-02-15T11:52:40;99753.75;;;19.22;37.40
2681;BME280;1350;42.134;24.708;2024-02-15T11:55:08;99752.72;;;19.75;37.36
2681;BME280;1350;42.134;24.708;2024-02-15T11:57:38;99749.78;;;19.37;36.50
2681;BME280;1350;42.134;24.708;2024-02-15T12:00:22;99745.44;;;18.93;36.95
2681;BME280;1350;42.134;24.708;2024-02-15T12:03:07;99747.50;;;18.69;37.85
2681;BME280;1350;42.134;24.708;2024-02-15T12:05:52;99742.38;;;18.98;37.33
2681;BME280;1350;42.134;24.708;2024-02-15T12:08:36;99744.34;;;18.96;38.20
2681;BME280;1350;42.134;24.708;2024-02-15T12:11:20;99749.78;;;18.85;37.39
2681;BME280;1350;42.134;24.708;2024-02-15T12:17:27;99741.72;;;19.87;36.35
2681;BME280;1350;42.134;24.708;2024-02-15T12:20:11;99733.63;;;19.57;36.43
2681;BME280;1350;42.134;24.708;2024-02-15T12:22:41;99729.06;;;18.96;36.75
2681;BME280;1350;42.134;24.708;2024-02-15T12:25:14;99738.59;;;19.00;37.23
2681;BME280;1350;42.134;24.708;2024-02-15T12:27:42;99737.41;;;18.82;37.27
2681;BME280;1350;42.134;24.708;2024-02-15T12:30:13;99737.63;;;18.70;37.29
2681;BME280;1350;42.134;24.708;2024-02-15T12:32:42;99732.31;;;18.79;36.95
2681;BME280;1350;42.134;24.708;2024-02-15T12:35:13;99730.88;;;18.75;37.30
2681;BME280;1350;42.134;24.708;2024-02-15T12:37:42;99719.56;;;18.92;37.46
2681;BME280;1350;42.134;24.708;2024-02-15T12:40:12;99726.38;;;18.65;37.76
2681;BME280;1350;42.134;24.708;2024-02-15T12:42:41;99720.16;;;18.64;37.71
2681;BME280;1350;42.134;24.708;2024-02-15T12:45:15;99722.16;;;18.83;37.94
2681;BME280;1350;42.134;24.708;2024-02-15T12:47:47;99720.59;;;19.01;37.94
2681;BME280;1350;42.134;24.708;2024-02-15T12:50:15;99714.38;;;19.21;36.99
2681;BME280;1350;42.134;24.708;2024-02-15T12:52:45;99713.47;;;19.11;37.20
2681;BME280;1350;42.134;24.708;2024-02-15T12:55:14;99719.50;;;19.03;37.30
2681;BME280;1350;42.134;24.708;2024-02-15T12:57:42;99716.97;;;18.70;37.43
2681;BME280;1350;42.134;24.708;2024-02-15T13:00:12;99717.22;;;18.99;37.52
2681;BME280;1350;42.134;24.708;2024-02-15T13:02:43;99716.25;;;18.68;37.42
2681;BME280;1350;42.134;24.708;2024-02-15T13:05:12;99716.38;;;18.02;38.04
2681;BME280;1350;42.134;24.708;2024-02-15T13:07:39;99718.06;;;18.68;37.95
2681;BME280;1350;42.134;24.708;2024-02-15T13:10:07;99715.94;;;18.82;37.31
2681;BME280;1350;42.134;24.708;2024-02-15T13:12:35;99713.38;;;18.81;37.05
2681;BME280;1350;42.134;24.708;2024-02-15T13:15:03;99718.16;;;18.23;37.83
2681;BME280;1350;42.134;24.708;2024-02-15T13:17:32;99713.75;;;18.33;37.98
2681;BME280;1350;42.134;24.708;2024-02-15T13:20:00;99716.19;;;18.36;37.33
2681;BME280;1350;42.134;24.708;2024-02-15T13:22:32;99711.63;;;18.59;37.29
2681;BME280;1350;42.134;24.708;2024-02-15T13:25:01;99709.78;;;18.60;37.14
2681;BME280;1350;42.134;24.708;2024-02-15T13:27:29;99708.59;;;18.53;37.69
2681;BME280;1350;42.134;24.708;2024-02-15T13:29:57;99714.69;;;18.55;37.30
2681;BME280;1350;42.134;24.708;2024-02-15T13:32:24;99705.69;;;18.33;37.48
2681;BME280;1350;42.134;24.708;2024-02-15T13:34:51;99710.69;;;18.27;37.64
2681;BME280;1350;42.134;24.708;2024-02-15T13:37:22;99706.84;;;18.09;37.78
2681;BME280;1350;42.134;24.708;2024-02-15T13:39:51;99702.94;;;18.02;38.26